Flight Information

DEPARTURE
ALBUQUERQUE, NM
Elevation:
5354
Runways:
12/30 - 6000x150 - CONC-G
3/21 - 10000x150 - CONC-G
8/26 - 13793x150 - CONC-G
Active PE Departure:
3 - 8
Current PE ATIS:
Q
Altimeter:
30.31
Remarks:
V F R DEPARTURES CONTACT CLEARANCE DELIVERY, ADVISE ON COURSE HEADING, ALTITUDE, AND IF FLIGHT FOLLOWING IS REQUESTED.
ATIS:
118 505-856-4928
Clearance Delivery:
119.2
Ground:
121.9
Tower:
ALBUQUERQUE TOWER 120.3
DESTINATION
PHOENIX, AZ
Elevation:
1134
TPA:
2134 (est.)
Runways:
7L/25R - 10300x150 - CONC-G
7R/25L - 7800x150 - CONC-G
8/26 - 11489x150 - CONC-G
Active PE Arriving:
7R - 8
Active PE Approach:
VISUAL APPROACHES IN USE. ILS RUNWAY 7 RIGHT AND ILS RUNWAY 8 APPROACH IN USE.
Current PE ATIS:
F
Altimeter:
29.97
Remarks:
SIMULTANEOUS APPROACHES TO PARALLEL RUNWAYS IN USE. V F R DEPARTURES CONTACT CLEARANCE DELIVERY, ADVISE ON COURSE HEADING, ALTITUDE, AND IF FLIGHT FOLLOWING IS REQUESTED.
ATIS:
127.575
Tower:
PHOENIX TOWER
120.9 RWY 7L-25R, 7R-25L
118.7 RWY 8-26
Ground:
119.75 NORTH 132.55 SOUTH


284.7 NM252° True-12° Var240° HDG

Flight Plan:
(click to file on line)

1. Type
2. Aircraft Identification
3. Aircraft Type / Special Equipment
4. True Airspeed
kts
5. Departure Airport
(ICAO code)
6. Arriving Airport
(ICAO code)
7. Cruising Altitude
ft
8. Alternate Airport
(ICAO code)
9. Route of Flight
10. Remarks


00:00:00 Departure ATIS: Destination ATIS:

Clearance Limit:
Route:
Altitude: Expect in minutes
Frequency:
Transponder: (7500 Hijack / 7600 Lost Comms / 7700 Emergency)


KABQ 121552Z 06008KT 10SM FEW030 FEW120 13/03 A3031 RMK AO2 SLP217 MTN TOPS OBSC E AND SE T01330033
Time: 2021-05-12T15:52:00Z
1620837266
Winds: 60 @ 8 kts
Visibility: 10.0 sm
Clouds (AGL): FEW 3000
FEW 12000
Temperature: 13.3 C
Dew Point: 3.3 C
Pressure: 30.31004 in Hgbr

KPHX 121551Z 13004KT 10SM CLR 27/M03 A2997 RMK AO2 SLP131 T02671028
Time: 2021-05-12T15:51:00Z
1620837266
Winds: 130 @ 4 kts
Visibility: 10.0 sm
Clouds (AGL): CLR
Temperature: 26.7 C
Dew Point: -2.8 C
Pressure: 29.970472 in Hgbr


Notes:

Data extracted from FAA Digital Chart Supplement. Effective: 0901Z Thursday, APR 22, 2021 to 0901Z Thursday, JUN 17, 2021
Current ATIS data is provided courtisy of PilotEdge.